Time;durP1;ratioP1;P1;durP2;ratioP2;P2;SDS_P1;SDS_P2;PMS_P1;PMS_P2;Temp;Humidity;BMP_temperature;BMP_pressure;BME280_temperature;BME280_humidity;BME280_pressure;Samples;Min_cycle;Max_cycle;Signal;HPM_P1;HPM_P2
2023/11/26 00:02:53;;;;;;;1.88;1.40;;;5.40;94.50;;;;;;6162275;23;20025;-83
2023/11/26 00:09:02;;;;;;;1.50;1.20;;;5.30;94.50;;;;;;6069888;23;20386;-86
2023/11/26 00:11:51;;;;;;;1.70;1.10;;;5.30;94.60;;;;;;6078665;23;20010;-85
2023/11/26 00:14:49;;;;;;;1.00;1.00;;;5.20;94.60;;;;;;6071284;23;20002;-85
2023/11/26 00:20:57;;;;;;;1.75;1.05;;;5.20;94.70;;;;;;5963357;23;20029;-86
2023/11/26 00:23:22;;;;;;;1.33;1.05;;;5.20;94.80;;;;;;6135588;23;20395;-84
2023/11/26 00:26:11;;;;;;;1.90;1.10;;;5.10;94.80;;;;;;6163011;23;20009;-84
2023/11/26 00:29:41;;;;;;;;;;;;;;;;;;;;;
2023/11/26 00:32:29;;;;;;;2.38;1.17;;;5.10;94.90;;;;;;6159976;23;20029;-84
2023/11/26 00:34:55;;;;;;;3.25;1.17;;;5.20;94.60;;;;;;6129894;23;20029;-84
2023/11/26 00:37:21;;;;;;;1.33;1.20;;;5.20;94.50;;;;;;6133085;23;20013;-82
2023/11/26 00:39:47;;;;;;;1.33;1.13;;;5.10;94.40;;;;;;6133861;23;20038;-82
2023/11/26 00:42:13;;;;;;;1.83;1.23;;;5.20;94.50;;;;;;6135692;23;20406;-82
2023/11/26 00:44:38;;;;;;;3.97;1.58;;;5.10;94.50;;;;;;6133713;23;20012;-80
2023/11/26 00:47:04;;;;;;;2.47;1.10;;;5.10;94.50;;;;;;6135032;23;20057;-83
2023/11/26 00:49:31;;;;;;;3.83;1.30;;;5.10;94.50;;;;;;6132842;23;20129;-80
2023/11/26 00:51:56;;;;;;;2.42;1.10;;;5.00;94.40;;;;;;6159422;23;20007;-82
2023/11/26 00:54:22;;;;;;;1.52;1.20;;;5.00;94.50;;;;;;6156796;23;20033;-81
2023/11/26 00:56:48;;;;;;;3.10;1.05;;;5.00;94.60;;;;;;6131935;23;20005;-82
2023/11/26 00:59:13;;;;;;;1.67;0.98;;;5.00;94.60;;;;;;6132347;23;20002;-83
2023/11/26 01:01:39;;;;;;;1.95;1.02;;;5.20;94.50;;;;;;6132143;23;20435;-80
2023/11/26 01:04:05;;;;;;;1.02;1.00;;;5.10;94.50;;;;;;6132145;23;20001;-81
2023/11/26 01:06:31;;;;;;;1.15;1.00;;;5.10;94.50;;;;;;6132820;23;20005;-83
2023/11/26 01:09:07;;;;;;;1.33;0.98;;;5.10;94.40;;;;;;6134881;23;20027;-81
2023/11/26 01:11:37;;;;;;;1.77;1.00;;;5.10;94.40;;;;;;6133536;23;20002;-80
2023/11/26 01:14:03;;;;;;;1.10;1.00;;;5.10;94.30;;;;;;6133534;23;19998;-83
2023/11/26 01:16:28;;;;;;;1.20;1.10;;;5.00;94.30;;;;;;6132814;23;20443;-82
2023/11/26 01:18:59;;;;;;;1.73;1.10;;;5.00;94.30;;;;;;6132721;23;20009;-80
2023/11/26 01:21:25;;;;;;;1.65;1.00;;;5.00;94.30;;;;;;6133462;23;20009;-81
2023/11/26 01:23:58;;;;;;;1.70;0.80;;;5.10;94.30;;;;;;6132950;23;20390;-81
2023/11/26 01:26:26;;;;;;;2.10;1.20;;;5.00;94.40;;;;;;6132356;23;20016;-82
2023/11/26 01:28:51;;;;;;;0.90;0.90;;;5.00;94.40;;;;;;6132020;23;20073;-82
2023/11/26 01:31:17;;;;;;;2.10;1.10;;;5.00;94.30;;;;;;6131368;23;20001;-82
2023/11/26 01:33:43;;;;;;;0.93;0.93;;;5.00;94.40;;;;;;6154144;23;20418;-81
2023/11/26 01:36:11;;;;;;;1.92;0.90;;;5.10;94.40;;;;;;6129000;23;20042;-80
2023/11/26 01:38:37;;;;;;;3.05;0.98;;;5.10;94.30;;;;;;6128402;23;19997;-80
2023/11/26 01:41:03;;;;;;;1.98;0.90;;;5.00;94.20;;;;;;6129846;23;20013;-82
2023/11/26 01:43:28;;;;;;;1.38;0.82;;;5.00;94.30;;;;;;6128700;23;20331;-83
2023/11/26 01:46:09;;;;;;;1.05;0.95;;;5.10;94.60;;;;;;6130165;23;20013;-81
2023/11/26 01:48:36;;;;;;;1.10;1.00;;;5.10;94.30;;;;;;6158154;23;20025;-82
2023/11/26 01:51:07;;;;;;;1.77;1.20;;;5.20;94.30;;;;;;6158311;23;19997;-82
2023/11/26 01:53:35;;;;;;;1.58;0.80;;;5.20;94.20;;;;;;6131515;23;20017;-82
2023/11/26 01:56:01;;;;;;;0.80;0.80;;;5.10;94.20;;;;;;6130889;23;20384;-82
2023/11/26 01:58:29;;;;;;;1.73;0.90;;;5.20;94.20;;;;;;6159197;23;20009;-82
2023/11/26 02:00:54;;;;;;;2.25;0.90;;;5.20;94.20;;;;;;6132409;23;20041;-83
2023/11/26 02:03:20;;;;;;;1.05;0.88;;;5.10;94.10;;;;;;6158713;23;20048;-82
2023/11/26 02:05:46;;;;;;;0.90;0.90;;;5.10;94.10;;;;;;6131587;23;20638;-82
2023/11/26 02:08:12;;;;;;;1.25;1.00;;;5.10;94.20;;;;;;6129840;23;20008;-82
2023/11/26 02:10:37;;;;;;;1.65;0.90;;;5.20;94.20;;;;;;6128207;23;20013;-82
2023/11/26 02:13:04;;;;;;;1.10;1.00;;;5.10;94.10;;;;;;6131230;23;20008;-82
2023/11/26 02:15:31;;;;;;;1.13;0.85;;;5.20;94.10;;;;;;6159298;23;20001;-82
2023/11/26 02:17:57;;;;;;;1.05;0.95;;;5.20;94.10;;;;;;6132957;23;20001;-83
2023/11/26 02:20:23;;;;;;;1.00;0.82;;;5.20;94.00;;;;;;6132170;23;20056;-82
2023/11/26 02:22:49;;;;;;;1.55;0.90;;;5.10;93.90;;;;;;6131238;23;20033;-83
2023/11/26 02:25:14;;;;;;;0.88;0.85;;;5.10;94.00;;;;;;6131561;23;20233;-80
2023/11/26 02:27:40;;;;;;;1.27;0.80;;;5.10;94.10;;;;;;6156597;23;20005;-82
2023/11/26 02:30:06;;;;;;;1.40;1.13;;;5.10;94.20;;;;;;6157846;23;20415;-81
2023/11/26 02:32:32;;;;;;;1.00;0.80;;;5.00;94.10;;;;;;6156236;23;20077;-84
2023/11/26 02:34:57;;;;;;;0.90;0.90;;;5.00;94.20;;;;;;6131116;23;20449;-84
2023/11/26 02:37:23;;;;;;;0.82;0.80;;;5.00;94.30;;;;;;6129050;23;20012;-83
2023/11/26 02:39:48;;;;;;;1.15;0.93;;;4.90;94.60;;;;;;6157181;23;20489;-82
2023/11/26 02:42:14;;;;;;;1.50;0.85;;;4.90;94.40;;;;;;6157362;23;20017;-83
2023/11/26 02:44:40;;;;;;;1.10;1.00;;;4.90;94.40;;;;;;6155548;23;20076;-83
2023/11/26 02:47:07;;;;;;;1.67;0.98;;;4.90;94.40;;;;;;6156378;23;20004;-83
2023/11/26 02:49:33;;;;;;;2.17;0.80;;;4.90;94.50;;;;;;6130945;23;20461;-84
2023/11/26 02:51:59;;;;;;;0.80;0.80;;;4.90;94.50;;;;;;6157384;23;19998;-84
2023/11/26 02:54:24;;;;;;;1.23;0.90;;;4.90;94.50;;;;;;6128826;23;20032;-84
2023/11/26 02:56:50;;;;;;;1.13;0.88;;;4.90;94.50;;;;;;6128380;23;20005;-83
2023/11/26 02:59:16;;;;;;;1.70;0.90;;;4.90;94.50;;;;;;6129318;23;20428;-82
2023/11/26 03:01:42;;;;;;;1.25;0.88;;;4.90;94.50;;;;;;6128983;23;20793;-82
2023/11/26 03:04:08;;;;;;;1.05;0.90;;;5.00;94.50;;;;;;6129512;23;20010;-82
2023/11/26 03:06:35;;;;;;;1.38;1.00;;;4.90;94.50;;;;;;6153516;23;20427;-80
2023/11/26 03:09:09;;;;;;;1.65;0.82;;;4.90;94.50;;;;;;6155613;23;20024;-83
2023/11/26 03:14:19;;;;;;;2.05;1.00;;;4.90;94.50;;;;;;6158273;23;20013;-82
2023/11/26 03:16:45;;;;;;;1.08;0.85;;;5.00;94.50;;;;;;6132101;23;20010;-84
2023/11/26 03:19:14;;;;;;;1.13;1.00;;;5.00;94.50;;;;;;6159533;23;20327;-83
2023/11/26 03:21:44;;;;;;;0.80;0.80;;;5.00;94.70;;;;;;6157920;23;20002;-83
2023/11/26 03:24:13;;;;;;;0.88;0.80;;;5.00;94.40;;;;;;6131704;23;20017;-84
2023/11/26 03:26:39;;;;;;;1.90;0.85;;;5.00;94.40;;;;;;6157112;23;20009;-82
2023/11/26 03:29:05;;;;;;;1.95;0.90;;;5.00;94.40;;;;;;6156938;23;19997;-81
2023/11/26 03:31:31;;;;;;;1.15;0.80;;;5.00;94.40;;;;;;6130373;23;20443;-84
2023/11/26 03:33:57;;;;;;;0.88;0.80;;;5.00;94.40;;;;;;6130210;23;20001;-82
2023/11/26 03:36:23;;;;;;;1.63;1.17;;;5.00;94.40;;;;;;6131548;23;20005;-83
2023/11/26 03:38:52;;;;;;;1.83;0.80;;;5.10;94.40;;;;;;6132896;23;20079;-83
2023/11/26 03:41:18;;;;;;;1.90;0.90;;;5.00;94.30;;;;;;6132081;23;20465;-84
2023/11/26 03:43:44;;;;;;;1.95;0.80;;;5.10;94.30;;;;;;6134644;23;20010;-84
2023/11/26 03:46:10;;;;;;;1.17;0.80;;;5.10;94.40;;;;;;6133760;23;20009;-82
2023/11/26 03:48:35;;;;;;;1.13;0.90;;;5.10;94.30;;;;;;6131139;23;20001;-80
2023/11/26 03:51:01;;;;;;;1.60;1.15;;;5.10;94.30;;;;;;6133556;23;20006;-82
2023/11/26 03:53:26;;;;;;;1.50;1.00;;;5.10;94.30;;;;;;6164764;23;19998;-80
2023/11/26 03:55:52;;;;;;;1.33;0.90;;;5.10;94.30;;;;;;6140787;23;20005;-83
2023/11/26 03:58:17;;;;;;;2.45;1.10;;;5.10;94.30;;;;;;6135146;23;20013;-83
2023/11/26 04:00:43;;;;;;;1.38;1.00;;;5.20;94.30;;;;;;6132627;23;20065;-83
2023/11/26 04:03:08;;;;;;;3.00;1.00;;;5.20;94.30;;;;;;6133336;23;20013;-85
2023/11/26 04:05:34;;;;;;;1.63;1.00;;;5.20;94.20;;;;;;6133174;23;20016;-84
2023/11/26 04:07:59;;;;;;;2.40;1.38;;;5.20;94.20;;;;;;6159341;23;20085;-81
2023/11/26 04:10:25;;;;;;;1.55;1.00;;;5.20;94.20;;;;;;6133834;23;20005;-82
2023/11/26 04:12:50;;;;;;;0.80;0.80;;;5.20;94.10;;;;;;6159979;23;19997;-82
2023/11/26 04:15:22;;;;;;;2.85;0.90;;;5.20;94.10;;;;;;6140333;23;20008;-81
2023/11/26 04:17:48;;;;;;;0.90;0.90;;;5.20;94.10;;;;;;6164562;23;20033;-82
2023/11/26 04:20:14;;;;;;;1.20;1.10;;;5.10;94.10;;;;;;6133726;23;20005;-85
2023/11/26 04:22:39;;;;;;;1.80;1.00;;;5.10;94.10;;;;;;6160995;23;20001;-83
2023/11/26 04:25:05;;;;;;;1.88;1.10;;;5.10;94.20;;;;;;6134162;23;20005;-83
2023/11/26 04:27:31;;;;;;;1.33;0.90;;;5.10;94.30;;;;;;6136644;23;20001;-83
2023/11/26 04:29:57;;;;;;;1.02;0.93;;;5.10;94.30;;;;;;6163324;23;20053;-83
2023/11/26 04:32:24;;;;;;;0.93;0.90;;;5.10;94.40;;;;;;6163215;23;20001;-83
2023/11/26 04:34:49;;;;;;;0.88;0.80;;;5.10;94.30;;;;;;6140203;23;20001;-83
2023/11/26 04:37:15;;;;;;;2.38;1.30;;;5.10;94.30;;;;;;6142442;23;20002;-81
2023/11/26 04:39:41;;;;;;;0.90;0.90;;;5.10;94.30;;;;;;6139256;23;20066;-83
2023/11/26 04:42:07;;;;;;;1.88;0.90;;;5.00;94.30;;;;;;6165052;23;20028;-84
2023/11/26 04:44:32;;;;;;;1.50;0.90;;;5.00;94.30;;;;;;6167499;23;19997;-83
2023/11/26 04:47:01;;;;;;;0.80;0.80;;;5.00;94.40;;;;;;6141766;23;20005;-85
2023/11/26 04:49:27;;;;;;;2.30;0.90;;;5.00;94.40;;;;;;6137849;23;20335;-82
2023/11/26 04:51:53;;;;;;;1.70;1.00;;;5.00;94.40;;;;;;6135444;23;19997;-84
2023/11/26 04:54:21;;;;;;;1.88;0.82;;;5.00;94.30;;;;;;6135000;23;20499;-84
2023/11/26 04:56:46;;;;;;;1.00;0.90;;;5.00;94.30;;;;;;6133722;23;20092;-83
2023/11/26 04:59:12;;;;;;;1.25;0.70;;;5.00;94.30;;;;;;6160397;23;20453;-83
2023/11/26 05:01:43;;;;;;;0.93;0.80;;;5.10;94.30;;;;;;6133440;23;20013;-85
2023/11/26 05:04:10;;;;;;;1.17;0.70;;;5.10;94.30;;;;;;6134377;23;20012;-81
2023/11/26 05:06:35;;;;;;;1.13;0.77;;;5.10;94.30;;;;;;6133681;23;20056;-82
2023/11/26 05:09:01;;;;;;;1.10;0.80;;;5.20;94.30;;;;;;6160632;23;20339;-81
2023/11/26 05:11:26;;;;;;;1.17;0.80;;;5.20;94.20;;;;;;6134132;23;20415;-82
2023/11/26 05:13:52;;;;;;;1.27;0.70;;;5.30;94.20;;;;;;6159046;23;20001;-82
2023/11/26 05:16:18;;;;;;;0.98;0.88;;;5.30;94.20;;;;;;6133226;23;20013;-82
2023/11/26 05:18:43;;;;;;;0.68;0.68;;;5.30;94.10;;;;;;6132419;23;20434;-83
2023/11/26 05:21:09;;;;;;;0.75;0.75;;;5.30;94.10;;;;;;6160978;23;20041;-82
2023/11/26 05:23:35;;;;;;;0.75;0.75;;;5.30;94.10;;;;;;6133913;23;20005;-83
2023/11/26 05:26:02;;;;;;;1.27;0.80;;;5.30;94.10;;;;;;6134192;23;20012;-82
2023/11/26 05:28:28;;;;;;;1.95;0.80;;;5.40;94.10;;;;;;6133720;23;20012;-83
2023/11/26 05:30:53;;;;;;;1.05;0.85;;;5.40;94.10;;;;;;6134425;23;20398;-82
2023/11/26 05:33:19;;;;;;;1.60;0.80;;;5.40;94.00;;;;;;6133194;23;20025;-84
2023/11/26 05:35:44;;;;;;;0.75;0.75;;;5.30;94.10;;;;;;6134076;23;20092;-83
2023/11/26 05:38:10;;;;;;;1.00;0.77;;;5.40;94.10;;;;;;6133326;23;20053;-82
2023/11/26 05:40:35;;;;;;;1.45;0.77;;;5.40;94.10;;;;;;6133828;23;20447;-84
2023/11/26 05:43:02;;;;;;;1.40;0.80;;;5.40;94.10;;;;;;6133153;23;20005;-80
2023/11/26 05:45:28;;;;;;;1.65;0.70;;;5.50;94.10;;;;;;6133631;23;20006;-86
2023/11/26 05:47:55;;;;;;;1.33;0.70;;;5.50;94.10;;;;;;6158703;23;20002;-83
2023/11/26 05:50:21;;;;;;;0.85;0.80;;;5.50;94.10;;;;;;6133183;23;20076;-83
2023/11/26 05:52:46;;;;;;;0.70;0.70;;;5.60;94.10;;;;;;6132682;23;20434;-83
2023/11/26 05:55:12;;;;;;;0.60;0.60;;;5.60;94.00;;;;;;6133545;23;20002;-83
2023/11/26 05:57:37;;;;;;;0.75;0.75;;;5.70;94.30;;;;;;6131749;23;20018;-81
2023/11/26 06:00:04;;;;;;;0.77;0.77;;;5.70;93.90;;;;;;6133408;23;20009;-83
2023/11/26 06:02:30;;;;;;;0.80;0.80;;;5.80;93.90;;;;;;6132093;23;20020;-82
2023/11/26 06:04:56;;;;;;;2.13;0.80;;;5.80;93.90;;;;;;6132173;23;20007;-84
2023/11/26 06:07:22;;;;;;;0.93;0.90;;;5.80;93.80;;;;;;6132529;23;20084;-84
2023/11/26 06:09:47;;;;;;;1.23;0.90;;;5.90;93.80;;;;;;6132444;23;20006;-84
2023/11/26 06:12:13;;;;;;;1.30;1.00;;;5.90;93.80;;;;;;6159237;23;20617;-82
2023/11/26 06:14:38;;;;;;;2.08;0.90;;;5.90;93.80;;;;;;6131905;23;20002;-83
2023/11/26 06:17:05;;;;;;;1.00;0.90;;;5.90;93.80;;;;;;6127543;23;20027;-82
2023/11/26 06:19:31;;;;;;;1.90;1.20;;;5.90;93.80;;;;;;6128164;23;20029;-82
2023/11/26 06:21:56;;;;;;;1.73;1.00;;;5.90;93.80;;;;;;6128866;23;20005;-83
2023/11/26 06:24:23;;;;;;;0.80;0.80;;;5.90;93.80;;;;;;6128466;23;20009;-82
2023/11/26 06:26:48;;;;;;;0.77;0.77;;;5.90;93.80;;;;;;6153939;23;20883;-83
2023/11/26 06:29:14;;;;;;;0.60;0.60;;;5.90;93.90;;;;;;6128576;23;20009;-81
2023/11/26 06:31:40;;;;;;;0.73;0.73;;;5.90;93.90;;;;;;6128001;23;20342;-83
2023/11/26 06:34:06;;;;;;;0.68;0.68;;;5.90;93.90;;;;;;6154212;23;20001;-82
2023/11/26 06:36:32;;;;;;;1.10;0.90;;;5.90;93.90;;;;;;6127160;23;20005;-81
2023/11/26 06:38:58;;;;;;;1.75;0.90;;;5.90;93.90;;;;;;6128395;23;20009;-82
2023/11/26 06:41:28;;;;;;;0.75;0.75;;;5.90;93.90;;;;;;6128568;23;20050;-81
2023/11/26 06:43:55;;;;;;;0.73;0.70;;;5.90;93.90;;;;;;6127396;23;20002;-81
2023/11/26 06:46:24;;;;;;;0.70;0.70;;;5.90;93.90;;;;;;6152559;23;20343;-80
2023/11/26 06:48:51;;;;;;;1.05;0.70;;;5.90;93.80;;;;;;6126220;23;20005;-80
2023/11/26 06:51:19;;;;;;;1.45;0.70;;;5.90;93.80;;;;;;6154123;23;20028;-80
2023/11/26 06:53:46;;;;;;;0.93;0.70;;;5.90;93.90;;;;;;6152504;23;20009;-80
2023/11/26 06:56:11;;;;;;;6.78;0.93;;;6.00;93.90;;;;;;6127919;23;20013;-79
2023/11/26 06:58:38;;;;;;;1.52;0.80;;;6.00;93.90;;;;;;6153724;23;20435;-82
2023/11/26 07:01:07;;;;;;;0.70;0.65;;;6.00;93.90;;;;;;6127758;23;20499;-81
2023/11/26 07:03:34;;;;;;;2.30;0.98;;;6.00;93.90;;;;;;6127178;23;20005;-80
2023/11/26 07:06:01;;;;;;;0.60;0.60;;;6.00;93.90;;;;;;6127682;23;20351;-78
2023/11/26 07:08:27;;;;;;;0.80;0.70;;;6.00;93.90;;;;;;6153131;23;20005;-79
2023/11/26 07:10:53;;;;;;;0.80;0.70;;;6.00;93.90;;;;;;6154045;23;19997;-81
2023/11/26 07:13:19;;;;;;;0.70;0.60;;;6.00;93.90;;;;;;6152777;23;20374;-80
2023/11/26 07:15:45;;;;;;;0.73;0.70;;;6.00;94.10;;;;;;6155324;23;20032;-80
2023/11/26 07:18:12;;;;;;;1.63;0.70;;;6.00;94.00;;;;;;6127076;23;20427;-79
2023/11/26 07:20:37;;;;;;;0.90;0.70;;;6.10;94.00;;;;;;6154106;23;20399;-81
2023/11/26 07:23:04;;;;;;;0.70;0.70;;;6.10;94.00;;;;;;6154617;23;20006;-81
2023/11/26 07:25:29;;;;;;;0.60;0.60;;;6.10;94.10;;;;;;6128447;23;20054;-81
2023/11/26 07:27:57;;;;;;;0.70;0.70;;;6.10;94.10;;;;;;6127851;23;19998;-80
2023/11/26 07:30:22;;;;;;;0.60;0.60;;;6.20;94.00;;;;;;6154517;23;20090;-81
2023/11/26 07:32:50;;;;;;;1.98;1.08;;;6.20;94.00;;;;;;6129199;23;20576;-82
2023/11/26 07:35:16;;;;;;;2.78;1.17;;;6.20;94.00;;;;;;6145052;23;20005;-83
2023/11/26 07:37:42;;;;;;;1.67;0.80;;;6.20;94.00;;;;;;6133512;23;20000;-81
2023/11/26 07:40:13;;;;;;;1.23;1.00;;;6.30;94.00;;;;;;6134409;23;20036;-83
2023/11/26 07:42:40;;;;;;;1.57;0.87;;;6.30;94.00;;;;;;6165876;23;20002;-82
2023/11/26 07:45:06;;;;;;;0.75;0.75;;;6.30;93.90;;;;;;6138876;23;20056;-82
2023/11/26 07:47:32;;;;;;;1.13;0.70;;;6.30;93.90;;;;;;6140613;23;20001;-81
2023/11/26 07:49:57;;;;;;;1.52;0.70;;;6.30;93.90;;;;;;6138250;23;20474;-80
2023/11/26 07:52:23;;;;;;;0.60;0.60;;;6.40;93.90;;;;;;6159565;23;20002;-82
2023/11/26 07:54:49;;;;;;;0.70;0.70;;;6.40;93.90;;;;;;6131298;23;20242;-82
2023/11/26 07:57:15;;;;;;;0.60;0.60;;;6.40;94.20;;;;;;6131410;23;20370;-81
2023/11/26 07:59:43;;;;;;;0.77;0.65;;;6.40;93.90;;;;;;6132757;23;20009;-82
2023/11/26 08:02:10;;;;;;;0.63;0.63;;;6.40;93.90;;;;;;6130576;23;20032;-82
2023/11/26 08:04:37;;;;;;;0.70;0.70;;;6.40;93.90;;;;;;6134398;23;20029;-81
2023/11/26 08:07:03;;;;;;;2.85;0.80;;;6.50;93.90;;;;;;6132181;23;20005;-81
2023/11/26 08:09:34;;;;;;;0.77;0.65;;;6.50;93.90;;;;;;6135256;23;20497;-82
2023/11/26 08:12:02;;;;;;;1.70;0.77;;;6.50;93.80;;;;;;6146580;23;20140;-81
2023/11/26 08:14:27;;;;;;;1.00;0.80;;;6.50;93.80;;;;;;6140826;23;20149;-80
2023/11/26 08:16:57;;;;;;;1.25;0.80;;;6.50;93.80;;;;;;6127230;23;20009;-80
2023/11/26 08:19:24;;;;;;;2.80;0.75;;;6.60;93.80;;;;;;6156325;23;20005;-80
2023/11/26 08:21:53;;;;;;;0.70;0.70;;;6.60;93.80;;;;;;6129844;23;20010;-79
2023/11/26 08:24:19;;;;;;;0.80;0.80;;;6.60;93.80;;;;;;6157082;23;20084;-81
2023/11/26 08:26:46;;;;;;;0.98;0.70;;;6.60;93.70;;;;;;6130007;23;20001;-79
2023/11/26 08:29:18;;;;;;;0.70;0.70;;;6.60;93.80;;;;;;6129653;23;20266;-80
2023/11/26 08:31:53;;;;;;;1.95;0.88;;;6.60;93.80;;;;;;6156584;23;19997;-78
2023/11/26 08:34:22;;;;;;;1.35;1.25;;;6.70;93.80;;;;;;6156125;23;19998;-79
2023/11/26 08:37:04;;;;;;;;;;;;;;;;;;;;;
2023/11/26 08:39:34;;;;;;;1.25;0.82;;;6.60;93.90;;;;;;6085877;23;20088;-79
2023/11/26 08:42:04;;;;;;;0.70;0.65;;;6.70;93.90;;;;;;6122938;23;20005;-80
2023/11/26 08:44:41;;;;;;;1.15;0.75;;;6.70;93.90;;;;;;6126299;23;20002;-78
2023/11/26 08:51:35;;;;;;;0.70;0.70;;;6.80;93.90;;;;;;6154151;23;20020;-82
2023/11/26 08:54:57;;;;;;;1.02;0.65;;;6.90;93.80;;;;;;5993421;23;20004;-81
2023/11/26 09:10:07;;;;;;;0.70;0.70;;;7.10;93.70;;;;;;6113602;23;20040;-83
2023/11/26 09:13:04;;;;;;;0.70;0.70;;;7.20;93.70;;;;;;6121030;23;20351;-80
2023/11/26 09:15:57;;;;;;;0.85;0.80;;;7.20;93.70;;;;;;6114193;23;20009;-77
2023/11/26 09:18:22;;;;;;;1.10;0.85;;;7.30;93.70;;;;;;6123788;23;20010;-80
2023/11/26 09:20:57;;;;;;;0.90;0.80;;;7.20;93.60;;;;;;6122504;23;20428;-82
2023/11/26 09:29:06;;;;;;;0.70;0.70;;;7.30;93.60;;;;;;6094374;23;20026;-82
2023/11/26 09:31:34;;;;;;;1.70;0.80;;;7.40;93.60;;;;;;6099492;23;20013;-81
2023/11/26 09:34:02;;;;;;;0.80;0.70;;;7.30;93.50;;;;;;6125711;23;20085;-79
2023/11/26 09:36:44;;;;;;;0.70;0.70;;;7.40;93.60;;;;;;6100073;23;20130;-82
2023/11/26 09:43:58;;;;;;;;;;;;;;;;;;;;;
2023/11/26 09:54:10;;;;;;;0.70;0.70;;;7.50;93.70;;;;;;6141746;23;20030;-80
2023/11/26 09:56:36;;;;;;;1.40;0.88;;;7.50;93.70;;;;;;6131342;23;20548;-79
2023/11/26 09:59:05;;;;;;;1.65;0.88;;;7.50;93.70;;;;;;6129976;23;20006;-82
2023/11/26 10:01:50;;;;;;;1.23;0.70;;;7.60;93.70;;;;;;6132775;23;20009;-80
2023/11/26 10:04:16;;;;;;;0.82;0.70;;;7.70;93.70;;;;;;6111606;23;20006;-82
2023/11/26 10:07:44;;;;;;;1.02;0.90;;;7.60;93.60;;;;;;6125550;23;20018;-75
2023/11/26 10:10:12;;;;;;;1.10;0.70;;;7.70;93.90;;;;;;6010206;23;20068;-77
2023/11/26 10:13:04;;;;;;;1.15;0.93;;;7.70;93.70;;;;;;6068202;23;20431;-77
2023/11/26 10:15:58;;;;;;;1.85;0.90;;;7.60;93.70;;;;;;6123365;23;20047;-77
2023/11/26 10:19:02;;;;;;;1.35;0.75;;;7.60;93.70;;;;;;6149651;23;20005;-77
2023/11/26 10:24:56;;;;;;;1.33;0.90;;;7.70;93.80;;;;;;6134651;23;20056;-76
2023/11/26 10:27:48;;;;;;;1.52;0.70;;;7.80;93.80;;;;;;6124294;23;20017;-77
2023/11/26 10:30:36;;;;;;;0.73;0.70;;;7.90;93.90;;;;;;6125146;23;20078;-75
2023/11/26 10:33:03;;;;;;;1.15;0.80;;;7.90;93.80;;;;;;6123389;23;20006;-78
2023/11/26 10:35:53;;;;;;;1.15;0.82;;;7.90;93.80;;;;;;6122303;23;20013;-77
2023/11/26 10:39:00;;;;;;;1.00;0.70;;;8.00;93.80;;;;;;6102312;23;20336;-79
2023/11/26 10:41:26;;;;;;;0.98;0.80;;;8.00;93.80;;;;;;6120767;23;20009;-77
2023/11/26 10:43:55;;;;;;;1.08;0.80;;;8.00;93.90;;;;;;6149388;23;20009;-72
2023/11/26 10:46:25;;;;;;;2.53;0.95;;;8.00;93.90;;;;;;6147569;23;20435;-72
2023/11/26 10:49:15;;;;;;;1.60;0.75;;;8.00;93.80;;;;;;6149334;23;20383;-74
2023/11/26 10:52:07;;;;;;;0.80;0.77;;;8.10;93.90;;;;;;6153649;23;20482;-84
2023/11/26 10:54:48;;;;;;;0.98;0.80;;;8.00;93.80;;;;;;6130559;23;20005;-83
2023/11/26 10:57:22;;;;;;;0.90;0.90;;;8.10;93.80;;;;;;6154646;23;20005;-85
2023/11/26 10:59:56;;;;;;;2.05;0.80;;;8.10;93.80;;;;;;6126280;23;20631;-85
2023/11/26 11:02:23;;;;;;;0.82;0.70;;;8.10;93.80;;;;;;6127834;23;20009;-85
2023/11/26 11:04:54;;;;;;;1.60;0.80;;;8.10;93.90;;;;;;6123457;23;20330;-84
2023/11/26 11:07:26;;;;;;;1.63;1.10;;;8.10;93.90;;;;;;6122309;23;20278;-80
2023/11/26 11:10:06;;;;;;;0.80;0.80;;;8.10;93.90;;;;;;6122808;23;20020;-81
2023/11/26 11:12:53;;;;;;;1.50;0.90;;;8.20;93.90;;;;;;6126485;23;20009;-83
2023/11/26 11:15:24;;;;;;;1.00;0.80;;;8.20;93.90;;;;;;6150316;23;20009;-84
2023/11/26 11:17:49;;;;;;;2.83;1.10;;;8.20;93.90;;;;;;6130063;23;20001;-86
2023/11/26 11:20:15;;;;;;;0.85;0.70;;;8.20;94.00;;;;;;6130020;23;20033;-86
2023/11/26 11:22:45;;;;;;;0.75;0.70;;;8.20;93.90;;;;;;6131174;23;19998;-85
2023/11/26 11:25:13;;;;;;;1.15;0.70;;;8.30;94.00;;;;;;6151611;23;20005;-85
2023/11/26 11:27:58;;;;;;;1.90;1.00;;;8.30;93.90;;;;;;6126292;23;20070;-83
2023/11/26 11:30:39;;;;;;;0.70;0.70;;;8.30;93.90;;;;;;6126749;23;20009;-86
2023/11/26 11:33:07;;;;;;;1.38;0.70;;;8.40;93.90;;;;;;6126597;23;20006;-84
2023/11/26 11:35:41;;;;;;;1.60;0.80;;;8.40;93.90;;;;;;6125374;23;20014;-84
2023/11/26 11:38:09;;;;;;;1.00;0.90;;;8.40;94.10;;;;;;6126812;23;20101;-86
2023/11/26 11:41:11;;;;;;;2.17;1.10;;;8.40;93.90;;;;;;6150880;23;20016;-84
2023/11/26 11:43:37;;;;;;;1.48;0.98;;;8.50;93.90;;;;;;6124600;23;20036;-87
2023/11/26 11:46:28;;;;;;;1.77;0.90;;;8.50;94.10;;;;;;6151631;23;20005;-84
2023/11/26 11:48:59;;;;;;;1.35;0.90;;;8.60;93.90;;;;;;6152212;23;20001;-86
2023/11/26 11:51:38;;;;;;;1.00;0.88;;;8.70;93.80;;;;;;6125805;23;20008;-85
2023/11/26 11:54:10;;;;;;;0.80;0.80;;;8.70;93.80;;;;;;6126027;23;20056;-83
2023/11/26 11:56:43;;;;;;;3.70;1.30;;;8.80;93.70;;;;;;6128905;23;20009;-85
2023/11/26 11:59:09;;;;;;;2.05;1.00;;;8.80;93.70;;;;;;6129740;23;20016;-85
2023/11/26 12:01:37;;;;;;;1.35;1.20;;;8.80;93.70;;;;;;6126179;23;20365;-84
2023/11/26 12:04:03;;;;;;;1.15;0.93;;;8.90;93.70;;;;;;6124928;23;20009;-85
2023/11/26 12:06:30;;;;;;;3.85;1.60;;;8.80;93.70;;;;;;6125793;23;20056;-85
2023/11/26 12:08:58;;;;;;;2.22;1.42;;;8.80;93.70;;;;;;6126513;23;20395;-86
2023/11/26 12:11:23;;;;;;;1.33;1.15;;;8.90;93.70;;;;;;6151973;23;20164;-85
2023/11/26 12:13:50;;;;;;;2.03;1.20;;;8.90;93.80;;;;;;6124563;23;20382;-84
2023/11/26 12:16:16;;;;;;;1.00;0.90;;;8.90;93.80;;;;;;6126211;23;20005;-85
2023/11/26 12:18:42;;;;;;;1.88;1.05;;;9.00;93.80;;;;;;6125830;23;20036;-84
2023/11/26 12:21:09;;;;;;;1.98;1.17;;;9.00;93.70;;;;;;6126884;23;20017;-85
2023/11/26 12:23:37;;;;;;;2.40;1.30;;;9.00;93.70;;;;;;6127371;23;20006;-85
2023/11/26 12:26:03;;;;;;;1.40;1.10;;;9.00;93.80;;;;;;6127179;23;20014;-86
2023/11/26 12:28:48;;;;;;;1.13;0.90;;;9.10;93.80;;;;;;6129416;23;20010;-88
2023/11/26 12:31:15;;;;;;;1.27;1.00;;;9.10;93.70;;;;;;6128686;23;20084;-86
2023/11/26 12:34:20;;;;;;;4.13;1.15;;;9.10;93.70;;;;;;6131249;23;20005;-85
2023/11/26 12:36:55;;;;;;;1.15;1.00;;;9.10;93.70;;;;;;5987306;23;20043;-85
2023/11/26 12:39:22;;;;;;;1.95;1.10;;;9.10;93.70;;;;;;6138717;23;20005;-85
2023/11/26 12:42:11;;;;;;;1.00;0.90;;;9.10;93.70;;;;;;6132390;23;20386;-86
2023/11/26 12:44:37;;;;;;;1.08;0.98;;;9.00;93.80;;;;;;6132260;23;20009;-87
2023/11/26 12:47:10;;;;;;;1.45;0.88;;;9.00;93.90;;;;;;6135714;23;20009;-85
2023/11/26 12:50:04;;;;;;;1.63;0.93;;;9.00;94.00;;;;;;6136421;23;20455;-89
2023/11/26 12:52:34;;;;;;;3.55;1.00;;;9.00;94.00;;;;;;6133695;23;20014;-84
2023/11/26 12:55:04;;;;;;;2.15;1.10;;;9.00;94.00;;;;;;6130489;23;20040;-87
2023/11/26 12:57:39;;;;;;;1.17;0.88;;;9.00;94.00;;;;;;6128032;23;19998;-88
2023/11/26 13:00:07;;;;;;;0.80;0.80;;;8.90;94.00;;;;;;6128002;23;20005;-88
2023/11/26 13:02:35;;;;;;;1.05;0.93;;;8.90;94.10;;;;;;6128919;23;20012;-88
2023/11/26 13:05:04;;;;;;;1.48;1.15;;;8.90;94.10;;;;;;6127678;23;20407;-86
2023/11/26 13:07:39;;;;;;;1.80;1.00;;;8.90;94.20;;;;;;6128053;23;20010;-86
2023/11/26 13:10:08;;;;;;;1.15;0.90;;;8.90;94.20;;;;;;6128052;23;20334;-88
2023/11/26 13:12:43;;;;;;;0.80;0.80;;;8.90;94.10;;;;;;6137057;23;19985;-88
2023/11/26 13:15:10;;;;;;;1.50;0.88;;;8.90;94.10;;;;;;6149799;23;20214;-88
2023/11/26 13:17:35;;;;;;;1.25;1.05;;;8.90;94.20;;;;;;6137964;23;20518;-87
2023/11/26 13:20:01;;;;;;;1.10;0.98;;;8.80;94.20;;;;;;6130541;23;19997;-86
2023/11/26 13:22:26;;;;;;;0.98;0.80;;;8.90;94.30;;;;;;6143798;23;20120;-89
2023/11/26 13:24:52;;;;;;;2.22;0.90;;;8.80;94.20;;;;;;6171948;23;20001;-90
2023/11/26 13:27:18;;;;;;;1.27;0.90;;;8.80;94.30;;;;;;6142841;23;19998;-88
2023/11/26 13:29:44;;;;;;;1.90;0.90;;;8.80;94.30;;;;;;6128663;23;20006;-87
2023/11/26 13:32:09;;;;;;;1.63;1.00;;;8.90;94.40;;;;;;6133042;23;20001;-85
2023/11/26 13:34:35;;;;;;;1.50;1.00;;;8.80;94.40;;;;;;6147554;23;20005;-87
2023/11/26 13:37:01;;;;;;;1.00;0.70;;;8.80;94.50;;;;;;6141629;23;20010;-89
2023/11/26 13:39:26;;;;;;;1.38;1.10;;;8.80;94.50;;;;;;6136634;23;20006;-88
2023/11/26 13:41:52;;;;;;;0.88;0.88;;;8.80;94.50;;;;;;6125838;23;20075;-85
2023/11/26 13:44:20;;;;;;;1.10;1.00;;;8.70;94.60;;;;;;6129020;23;20028;-87
2023/11/26 13:46:45;;;;;;;0.90;0.90;;;8.80;94.60;;;;;;6135686;23;20005;-85
2023/11/26 13:49:11;;;;;;;0.90;0.90;;;8.80;94.80;;;;;;6135171;23;20515;-87
2023/11/26 13:51:37;;;;;;;1.17;0.80;;;8.80;94.50;;;;;;6131665;23;20001;-88
2023/11/26 13:54:02;;;;;;;2.78;0.90;;;8.80;94.60;;;;;;6129833;23;20009;-87
2023/11/26 13:56:28;;;;;;;1.08;0.95;;;8.80;94.60;;;;;;6155713;23;20361;-87
2023/11/26 13:58:53;;;;;;;1.20;0.90;;;8.80;94.60;;;;;;6130484;23;20032;-86
2023/11/26 14:01:19;;;;;;;1.08;1.00;;;8.90;94.70;;;;;;6132159;23;20002;-87
2023/11/26 14:03:47;;;;;;;0.88;0.80;;;8.80;94.60;;;;;;6139052;23;20002;-86